createdAt,value
2018-01-21T00:02:25.065Z,7.40
2018-01-21T00:04:53.757Z,7.70
2018-01-21T00:07:22.047Z,4.60
2018-01-21T00:09:50.340Z,5.37
2018-01-21T00:12:18.653Z,3.93
2018-01-21T00:14:47.716Z,7.80
2018-01-21T00:17:15.995Z,8.00
2018-01-21T00:19:44.305Z,8.63
2018-01-21T00:22:31.001Z,9.73
2018-01-21T00:25:00.069Z,7.10
2018-01-21T00:27:28.365Z,5.80
2018-01-21T00:29:56.650Z,5.40
2018-01-21T00:32:25.711Z,10.20
2018-01-21T00:34:54.772Z,5.83
2018-01-21T00:37:23.820Z,6.67
2018-01-21T00:39:52.165Z,8.10
2018-01-21T00:42:20.464Z,5.87
2018-01-21T00:44:48.767Z,6.70
2018-01-21T00:47:17.055Z,4.27
2018-01-21T00:49:45.349Z,6.20
2018-01-21T00:52:13.671Z,9.40
2018-01-21T00:54:41.971Z,7.00
2018-01-21T00:57:10.258Z,6.20
2018-01-21T00:59:38.615Z,7.63
2018-01-21T01:02:06.914Z,5.83
2018-01-21T01:04:35.210Z,2.80
2018-01-21T01:07:03.513Z,8.30
2018-01-21T01:09:31.802Z,5.27
2018-01-21T01:12:00.101Z,3.90
2018-01-21T01:14:29.150Z,5.90
2018-01-21T01:16:57.490Z,2.60
2018-01-21T01:19:25.787Z,8.93
2018-01-21T01:21:54.266Z,6.73
2018-01-21T01:24:22.556Z,3.27
2018-01-21T01:26:50.851Z,5.03
2018-01-21T01:29:19.183Z,7.50
2018-01-21T01:31:48.256Z,7.73
2018-01-21T01:34:16.576Z,4.23
2018-01-21T01:36:44.888Z,5.70
2018-01-21T01:39:13.200Z,5.27
2018-01-21T01:41:41.515Z,3.40
2018-01-21T01:44:10.599Z,4.00
2018-01-21T01:46:39.726Z,12.63
2018-01-21T01:49:08.062Z,4.60
2018-01-21T01:51:36.400Z,7.37
2018-01-21T01:54:04.710Z,8.90
2018-01-21T01:56:33.033Z,15.63
2018-01-21T01:59:01.349Z,8.43
2018-01-21T02:01:29.660Z,8.07
2018-01-21T02:03:57.970Z,12.07
2018-01-21T02:06:26.596Z,18.83
2018-01-21T02:08:54.892Z,5.30
2018-01-21T02:11:23.204Z,9.17
2018-01-21T02:13:51.508Z,6.93
2018-01-21T02:16:20.628Z,5.57
2018-01-21T02:18:48.929Z,4.60
2018-01-21T02:21:17.233Z,4.00
2018-01-21T02:23:45.531Z,6.63
2018-01-21T02:26:13.836Z,6.63
2018-01-21T02:28:42.903Z,4.90
2018-01-21T02:31:11.274Z,5.63
2018-01-21T02:33:39.592Z,14.10
2018-01-21T02:36:07.897Z,7.20
2018-01-21T02:38:36.193Z,5.10
2018-01-21T02:41:04.488Z,8.43
2018-01-21T02:43:32.792Z,6.83
2018-01-21T02:46:01.104Z,4.73
2018-01-21T02:48:30.185Z,7.00
2018-01-21T02:50:58.494Z,6.43
2018-01-21T02:53:26.830Z,6.73
2018-01-21T02:55:55.138Z,5.60
2018-01-21T02:58:23.460Z,3.07
2018-01-21T03:00:51.778Z,1.43
2018-01-21T03:03:20.154Z,8.63
2018-01-21T03:05:49.242Z,8.03
2018-01-21T03:08:17.556Z,4.90
2018-01-21T03:10:45.912Z,1.07
2018-01-21T03:13:14.234Z,4.37
2018-01-21T03:15:43.298Z,2.40
2018-01-21T03:18:11.594Z,2.60
2018-01-21T03:20:40.004Z,3.70
2018-01-21T03:23:08.324Z,3.57
2018-01-21T03:25:36.634Z,6.17
2018-01-21T03:28:04.939Z,3.80
2018-01-21T03:30:33.250Z,6.20
2018-01-21T03:33:01.554Z,4.27
2018-01-21T03:35:29.999Z,4.97
2018-01-21T03:37:59.058Z,4.60
2018-01-21T03:40:27.344Z,4.47
2018-01-21T03:42:55.656Z,2.20
2018-01-21T03:45:24.730Z,8.87
2018-01-21T03:47:53.892Z,4.83
2018-01-21T03:50:22.178Z,8.50
2018-01-21T03:52:50.754Z,8.27
2018-01-21T03:55:19.042Z,2.33
2018-01-21T03:57:47.329Z,5.57
2018-01-21T04:00:15.659Z,1.17
2018-01-21T04:02:44.731Z,10.20
2018-01-21T04:05:13.034Z,2.40
2018-01-21T04:07:41.346Z,4.57
2018-01-21T04:10:09.642Z,4.37
2018-01-21T04:12:37.934Z,3.50
2018-01-21T04:15:06.223Z,4.73
2018-01-21T04:17:34.510Z,5.83
2018-01-21T04:20:02.807Z,2.83
2018-01-21T04:22:31.116Z,7.20
2018-01-21T04:25:00.170Z,6.20
2018-01-21T04:27:28.480Z,5.30
2018-01-21T04:29:56.780Z,4.90
2018-01-21T04:32:25.858Z,3.13
2018-01-21T04:34:54.170Z,5.70
2018-01-21T04:37:23.902Z,2.97
2018-01-21T04:39:53.066Z,4.77
2018-01-21T04:42:22.151Z,4.77
2018-01-21T04:44:50.469Z,1.20
2018-01-21T04:47:18.894Z,7.07
2018-01-21T04:49:47.194Z,3.37
2018-01-21T04:52:15.517Z,6.90
2018-01-21T04:54:44.594Z,4.03
2018-01-21T04:57:12.869Z,3.47
2018-01-21T04:59:41.950Z,7.33
2018-01-21T05:02:10.236Z,4.60
2018-01-21T05:04:39.223Z,3.80
2018-01-21T05:07:07.552Z,2.77
2018-01-21T05:09:35.864Z,4.63
2018-01-21T05:12:04.172Z,4.53
2018-01-21T05:14:32.465Z,9.23
2018-01-21T05:17:00.767Z,6.33
2018-01-21T05:19:29.824Z,3.60
2018-01-21T05:21:58.143Z,4.97
2018-01-21T05:24:27.236Z,4.20
2018-01-21T05:26:55.603Z,4.10
2018-01-21T05:29:23.911Z,5.00
2018-01-21T05:31:52.975Z,3.73
2018-01-21T05:34:21.321Z,6.40
2018-01-21T05:36:49.636Z,7.77
2018-01-21T05:39:17.944Z,4.97
2018-01-21T05:41:46.261Z,5.83
2018-01-21T05:44:14.586Z,8.73
2018-01-21T05:46:42.899Z,6.50
2018-01-21T05:49:11.964Z,5.03
2018-01-21T05:51:40.269Z,10.63
2018-01-21T05:54:08.566Z,6.50
2018-01-21T05:56:37.673Z,8.77
2018-01-21T05:59:06.728Z,8.83
2018-01-21T06:01:35.020Z,7.23
2018-01-21T06:04:03.322Z,4.13
2018-01-21T06:06:32.382Z,3.33
2018-01-21T06:09:00.691Z,4.90
2018-01-21T06:11:28.995Z,2.07
2018-01-21T06:13:57.312Z,5.87
2018-01-21T06:16:25.605Z,3.07
2018-01-21T06:18:53.916Z,3.50
2018-01-21T06:21:22.217Z,9.13
2018-01-21T06:23:51.296Z,10.67
2018-01-21T06:26:19.610Z,7.87
2018-01-21T06:28:47.932Z,6.43
2018-01-21T06:31:16.253Z,5.40
2018-01-21T06:33:44.664Z,5.50
2018-01-21T06:36:12.982Z,7.13
2018-01-21T06:38:41.281Z,4.53
2018-01-21T06:41:09.598Z,7.93
2018-01-21T06:43:37.918Z,3.97
2018-01-21T06:46:06.216Z,4.40
2018-01-21T06:48:34.539Z,8.30
2018-01-21T06:51:02.852Z,12.10
2018-01-21T06:53:31.149Z,4.20
2018-01-21T06:55:59.473Z,7.47
2018-01-21T06:58:28.999Z,7.80
2018-01-21T07:00:57.357Z,7.23
2018-01-21T07:03:25.624Z,6.50
2018-01-21T07:05:53.936Z,5.03
2018-01-21T07:08:22.236Z,6.30
2018-01-21T07:10:50.533Z,5.13
2018-01-21T07:13:18.832Z,8.10
2018-01-21T07:15:47.135Z,5.93
2018-01-21T07:18:16.247Z,4.07
2018-01-21T07:20:45.305Z,7.73
2018-01-21T07:23:13.613Z,6.53
2018-01-21T07:25:41.944Z,5.60
2018-01-21T07:28:10.246Z,7.93
2018-01-21T07:30:38.553Z,6.00
2018-01-21T07:33:07.103Z,7.07
2018-01-21T07:35:35.407Z,7.80
2018-01-21T07:38:03.703Z,6.63
2018-01-21T07:40:32.117Z,7.87
2018-01-21T07:43:00.422Z,10.60
2018-01-21T07:45:28.813Z,4.00
2018-01-21T07:47:57.179Z,6.00
2018-01-21T07:50:25.469Z,4.97
2018-01-21T07:52:53.755Z,9.33
2018-01-21T07:55:22.067Z,10.10
2018-01-21T07:57:50.381Z,7.10
2018-01-21T08:00:19.462Z,13.83
2018-01-21T08:02:47.776Z,6.63
2018-01-21T08:05:16.085Z,16.00
2018-01-21T08:07:44.403Z,5.83
2018-01-21T08:10:13.505Z,8.00
2018-01-21T08:12:42.586Z,6.47
2018-01-21T08:15:10.888Z,8.07
2018-01-21T08:17:39.181Z,11.20
2018-01-21T08:20:08.289Z,9.83
2018-01-21T08:22:37.367Z,10.10
2018-01-21T08:25:05.682Z,8.60
2018-01-21T08:27:34.008Z,10.57
2018-01-21T08:30:02.311Z,6.70
2018-01-21T08:32:31.382Z,4.27
2018-01-21T08:35:05.109Z,6.40
2018-01-21T08:37:38.964Z,7.23
2018-01-21T08:40:12.796Z,7.73
2018-01-21T08:42:41.097Z,12.90
2018-01-21T08:45:09.421Z,10.43
2018-01-21T08:47:37.715Z,8.80
2018-01-21T08:50:06.012Z,8.67
2018-01-21T08:52:34.317Z,4.00
2018-01-21T08:55:02.634Z,10.23
2018-01-21T08:57:31.696Z,4.70
2018-01-21T09:00:00.118Z,6.30
2018-01-21T09:02:29.179Z,7.40
2018-01-21T09:04:58.207Z,4.10
2018-01-21T09:07:26.522Z,10.87
2018-01-21T09:09:54.799Z,6.80
2018-01-21T09:12:23.106Z,5.70
2018-01-21T09:14:51.408Z,8.60
2018-01-21T09:17:19.734Z,7.17
2018-01-21T09:19:48.050Z,7.93
2018-01-21T09:22:16.347Z,4.77
2018-01-21T09:24:46.266Z,7.07
2018-01-21T09:27:14.574Z,5.97
2018-01-21T09:29:43.631Z,8.43
2018-01-21T09:32:11.990Z,9.60
2018-01-21T09:34:40.312Z,25.90
2018-01-21T09:37:08.637Z,33.03
2018-01-21T09:39:36.941Z,6.70
2018-01-21T09:42:05.233Z,3.77
2018-01-21T09:44:33.552Z,6.20
2018-01-21T09:47:01.876Z,2.57
2018-01-21T09:49:30.165Z,6.40
2018-01-21T09:51:58.463Z,8.73
2018-01-21T09:54:26.761Z,3.80
2018-01-21T09:56:55.391Z,5.20
2018-01-21T09:59:24.514Z,6.20
2018-01-21T10:01:52.817Z,7.27
2018-01-21T10:04:21.125Z,7.70
2018-01-21T10:06:49.920Z,7.10
2018-01-21T10:09:18.259Z,16.23
2018-01-21T10:11:46.550Z,6.73
2018-01-21T10:14:14.890Z,8.80
2018-01-21T10:16:44.010Z,7.30
2018-01-21T10:19:12.300Z,5.80
2018-01-21T10:21:40.881Z,6.20
2018-01-21T10:24:09.268Z,13.30
2018-01-21T10:26:37.560Z,8.57
2018-01-21T10:29:05.860Z,6.50
2018-01-21T10:31:34.157Z,5.67
2018-01-21T10:34:02.486Z,8.67
2018-01-21T10:36:30.818Z,7.53
2018-01-21T10:38:59.215Z,8.40
2018-01-21T10:41:27.530Z,6.10
2018-01-21T10:43:55.815Z,3.80
2018-01-21T10:46:24.114Z,6.60
2018-01-21T10:48:52.421Z,8.07
2018-01-21T10:51:20.751Z,6.70
2018-01-21T10:53:49.066Z,4.53
2018-01-21T10:56:17.385Z,3.80
2018-01-21T10:58:46.467Z,5.40
2018-01-21T11:01:14.764Z,6.43
2018-01-21T11:03:43.067Z,7.63
2018-01-21T11:06:12.122Z,6.37
2018-01-21T11:08:40.463Z,6.07
2018-01-21T11:11:08.759Z,5.20
2018-01-21T11:13:37.062Z,5.20
2018-01-21T11:16:05.363Z,7.73
2018-01-21T11:18:33.651Z,2.00
2018-01-21T11:21:02.001Z,2.63
2018-01-21T11:23:30.353Z,5.07
2018-01-21T11:25:58.707Z,6.00
2018-01-21T11:28:27.783Z,7.03
2018-01-21T11:30:56.079Z,6.70
2018-01-21T11:33:24.369Z,5.70
2018-01-21T11:35:53.507Z,4.43
2018-01-21T11:38:21.803Z,6.80
2018-01-21T11:40:50.107Z,8.23
2018-01-21T11:43:18.400Z,5.03
2018-01-21T11:45:46.710Z,6.80
2018-01-21T11:48:15.009Z,6.33
2018-01-21T11:50:43.385Z,3.17
2018-01-21T11:53:11.717Z,5.30
2018-01-21T11:55:40.011Z,7.60
2018-01-21T11:58:08.293Z,8.50
2018-01-21T12:00:36.600Z,5.63
2018-01-21T12:03:04.893Z,5.80
2018-01-21T12:05:33.177Z,7.63
2018-01-21T12:08:01.580Z,12.20
2018-01-21T12:10:29.871Z,7.23
2018-01-21T12:12:58.293Z,5.70
2018-01-21T12:15:27.379Z,7.43
2018-01-21T12:17:55.663Z,5.80
2018-01-21T12:20:23.960Z,4.10
2018-01-21T12:22:53.053Z,3.97
2018-01-21T12:25:22.120Z,5.33
2018-01-21T12:27:50.668Z,5.67
2018-01-21T12:30:18.977Z,4.10
2018-01-21T12:32:47.261Z,4.00
2018-01-21T12:35:15.923Z,3.23
2018-01-21T12:37:44.235Z,3.27
2018-01-21T12:40:12.547Z,4.13
2018-01-21T12:42:40.847Z,2.80
2018-01-21T12:45:09.912Z,2.97
2018-01-21T12:47:38.224Z,4.50
2018-01-21T12:50:06.543Z,4.17
2018-01-21T12:52:34.843Z,4.20
2018-01-21T12:55:03.129Z,4.40
2018-01-21T12:57:31.418Z,3.40
2018-01-21T12:59:59.705Z,4.67
2018-01-21T13:02:28.086Z,3.40
2018-01-21T13:04:56.460Z,3.80
2018-01-21T13:07:24.757Z,2.07
2018-01-21T13:09:53.050Z,5.97
2018-01-21T13:12:22.668Z,2.63
2018-01-21T13:14:51.722Z,3.63
2018-01-21T13:17:20.778Z,4.40
2018-01-21T13:19:49.072Z,4.90
2018-01-21T13:22:17.451Z,5.23
2018-01-21T13:24:45.757Z,5.57
2018-01-21T13:27:14.048Z,3.90
2018-01-21T13:29:42.373Z,4.10
2018-01-21T13:32:11.434Z,4.33
2018-01-21T13:34:39.734Z,6.60
2018-01-21T13:37:08.015Z,4.87
2018-01-21T13:39:36.317Z,4.33
2018-01-21T13:42:05.381Z,3.87
2018-01-21T13:44:33.669Z,5.70
2018-01-21T13:47:01.949Z,6.87
2018-01-21T13:49:30.261Z,8.23
2018-01-21T13:51:59.312Z,5.83
2018-01-21T13:54:27.724Z,7.57
2018-01-21T13:56:56.033Z,5.87
2018-01-21T13:59:24.310Z,4.83
2018-01-21T14:01:53.394Z,6.07
2018-01-21T14:04:22.254Z,5.67
2018-01-21T14:06:50.545Z,7.30
2018-01-21T14:09:18.853Z,6.90
2018-01-21T14:11:47.898Z,8.80
2018-01-21T14:14:16.180Z,3.97
2018-01-21T14:16:45.396Z,5.77
2018-01-21T14:19:13.742Z,4.20
2018-01-21T14:21:42.026Z,7.23
2018-01-21T14:24:10.331Z,4.20
2018-01-21T14:26:38.620Z,4.33
2018-01-21T14:29:06.899Z,6.57
2018-01-21T14:31:35.186Z,4.30
2018-01-21T14:34:03.473Z,3.73
2018-01-21T14:36:31.766Z,3.40
2018-01-21T14:39:00.072Z,4.93
2018-01-21T14:41:29.110Z,7.57
2018-01-21T14:43:57.403Z,4.60
2018-01-21T14:46:25.694Z,3.60
2018-01-21T14:48:53.987Z,8.40
2018-01-21T14:51:22.314Z,5.67
2018-01-21T14:53:50.586Z,4.33
2018-01-21T14:56:18.941Z,6.10
2018-01-21T14:58:48.798Z,43.23
2018-01-21T15:01:17.090Z,7.50
2018-01-21T15:03:45.372Z,5.40
2018-01-21T15:06:13.666Z,4.30
2018-01-21T15:08:41.954Z,7.70
2018-01-21T15:11:10.241Z,5.03
2018-01-21T15:13:38.544Z,3.70
2018-01-21T15:16:06.840Z,5.20
2018-01-21T15:18:35.938Z,10.97
2018-01-21T15:21:04.222Z,8.80
2018-01-21T15:23:33.275Z,3.80
2018-01-21T15:26:01.646Z,5.80
2018-01-21T15:28:29.956Z,6.83
2018-01-21T15:30:58.245Z,7.87
2018-01-21T15:33:26.534Z,5.90
2018-01-21T15:35:54.842Z,6.20
2018-01-21T15:38:23.232Z,4.07
2018-01-21T15:40:51.590Z,5.60
2018-01-21T15:43:20.646Z,3.93
2018-01-21T15:45:48.950Z,5.70
2018-01-21T15:48:18.030Z,6.57
2018-01-21T15:50:46.333Z,7.60
2018-01-21T15:53:14.654Z,3.77
2018-01-21T15:55:43.038Z,4.30
2018-01-21T15:58:11.330Z,5.50
2018-01-21T16:00:39.610Z,5.57
2018-01-21T16:03:07.892Z,5.47
2018-01-21T16:05:36.175Z,5.47
2018-01-21T16:08:04.454Z,5.90
2018-01-21T16:10:32.762Z,5.27
2018-01-21T16:13:01.129Z,8.03
2018-01-21T16:15:29.391Z,6.10
2018-01-21T16:17:57.737Z,7.73
2018-01-21T16:20:26.646Z,7.60
2018-01-21T16:22:55.704Z,6.47
2018-01-21T16:25:23.994Z,4.43
2018-01-21T16:27:52.310Z,7.10
2018-01-21T16:30:21.426Z,6.23
2018-01-21T16:32:49.722Z,7.67
2018-01-21T16:35:18.026Z,10.70
2018-01-21T16:38:04.034Z,6.60
2018-01-21T16:40:32.354Z,6.90
2018-01-21T16:43:00.742Z,10.83
2018-01-21T16:45:29.030Z,14.17
2018-01-21T16:47:57.344Z,10.47
2018-01-21T16:50:25.632Z,13.70
2018-01-21T16:52:53.952Z,12.73
2018-01-21T16:55:22.261Z,16.53
2018-01-21T16:57:50.567Z,10.43
2018-01-21T17:00:18.877Z,11.90
2018-01-21T17:02:47.193Z,15.13
2018-01-21T17:05:15.478Z,12.23
2018-01-21T17:07:43.765Z,13.07
2018-01-21T17:10:12.068Z,10.10
2018-01-21T17:12:40.394Z,9.90
2018-01-21T17:15:09.435Z,9.43
2018-01-21T17:17:37.710Z,9.10
2018-01-21T17:20:06.012Z,11.47
2018-01-21T17:22:34.300Z,11.60
2018-01-21T17:25:02.586Z,11.70
2018-01-21T17:27:30.966Z,10.37
2018-01-21T17:29:59.260Z,11.40
2018-01-21T17:32:27.546Z,13.90
2018-01-21T17:34:55.864Z,14.60
2018-01-21T17:37:24.152Z,9.43
2018-01-21T17:39:52.530Z,7.77
2018-01-21T17:42:20.840Z,11.77
2018-01-21T17:44:49.144Z,10.70
2018-01-21T17:47:17.516Z,10.57
2018-01-21T17:49:45.805Z,10.77
2018-01-21T17:52:14.176Z,7.07
2018-01-21T17:54:42.650Z,11.90
2018-01-21T17:57:10.949Z,12.23
2018-01-21T17:59:39.314Z,14.47
2018-01-21T18:02:07.625Z,11.03
2018-01-21T18:04:35.914Z,11.70
2018-01-21T18:07:04.311Z,13.13
2018-01-21T18:09:33.375Z,15.87
2018-01-21T18:12:02.440Z,12.50
2018-01-21T18:14:30.730Z,11.83
2018-01-21T18:16:59.037Z,12.90
2018-01-21T18:19:27.343Z,16.20
2018-01-21T18:21:55.679Z,16.87
2018-01-21T18:24:23.973Z,19.50
2018-01-21T18:26:52.270Z,14.57
2018-01-21T18:29:20.584Z,14.67
2018-01-21T18:31:49.644Z,15.27
2018-01-21T18:34:17.981Z,16.33
2018-01-21T18:36:46.297Z,15.60
2018-01-21T18:39:15.375Z,15.27
2018-01-21T18:41:43.685Z,14.20
2018-01-21T18:44:13.051Z,16.17
2018-01-21T18:46:42.674Z,17.33
2018-01-21T18:49:13.159Z,16.70
2018-01-21T18:51:42.500Z,12.97
2018-01-21T18:54:10.903Z,16.10
2018-01-21T18:56:39.294Z,17.80
2018-01-21T18:59:07.952Z,21.50
2018-01-21T19:01:36.258Z,16.57
2018-01-21T19:04:04.620Z,14.93
2018-01-21T19:06:33.513Z,21.37
2018-01-21T19:09:01.905Z,14.73
2018-01-21T19:11:30.199Z,15.00
2018-01-21T19:13:58.552Z,19.70
2018-01-21T19:16:26.820Z,17.00
2018-01-21T19:18:55.884Z,19.63
2018-01-21T19:21:24.186Z,17.80
2018-01-21T19:23:52.560Z,21.87
2018-01-21T19:26:20.907Z,22.27
2018-01-21T19:28:49.241Z,23.97
2018-01-21T19:31:19.181Z,18.90
2018-01-21T19:33:48.366Z,21.90
2018-01-21T19:36:16.741Z,20.60
2018-01-21T19:38:50.586Z,17.93
2018-01-21T19:44:20.788Z,23.77
2018-01-21T19:46:49.900Z,22.80
2018-01-21T19:49:18.216Z,19.53
2018-01-21T19:51:46.576Z,21.40
2018-01-21T19:54:14.944Z,25.37
2018-01-21T19:56:43.296Z,20.40
2018-01-21T19:59:11.620Z,21.33
2018-01-21T20:01:39.981Z,22.10
2018-01-21T20:04:08.300Z,22.00
2018-01-21T20:06:36.681Z,22.77
2018-01-21T20:09:05.591Z,25.20
2018-01-21T20:11:33.984Z,21.13
2018-01-21T20:14:02.354Z,20.63
2018-01-21T20:16:30.726Z,21.60
2018-01-21T20:18:59.054Z,21.00
2018-01-21T20:21:27.689Z,29.17
2018-01-21T20:23:56.938Z,24.37
2018-01-21T20:26:26.101Z,26.77
2018-01-21T20:28:54.408Z,22.27
2018-01-21T20:31:22.711Z,29.03
2018-01-21T20:33:51.324Z,27.53
2018-01-21T20:36:19.975Z,34.20
2018-01-21T20:38:49.436Z,23.30
2018-01-21T20:41:18.639Z,24.13
2018-01-21T20:43:47.660Z,25.83
2018-01-21T20:46:17.734Z,29.20
2018-01-21T20:48:47.028Z,22.67
2018-01-21T20:51:22.661Z,31.80
2018-01-21T20:53:56.635Z,27.17
2018-01-21T20:56:25.048Z,25.87
2018-01-21T20:58:53.441Z,28.37
2018-01-21T21:01:21.776Z,25.87
2018-01-21T21:03:50.182Z,31.70
2018-01-21T21:06:18.593Z,24.93
2018-01-21T21:08:49.245Z,29.60
2018-01-21T21:11:17.613Z,31.87
2018-01-21T21:13:47.433Z,28.93
2018-01-21T21:16:16.070Z,28.17
2018-01-21T21:18:45.467Z,26.30
2018-01-21T21:21:14.536Z,22.37
2018-01-21T21:23:43.868Z,23.33
2018-01-21T21:26:12.369Z,25.27
2018-01-21T21:28:40.964Z,21.57
2018-01-21T21:31:09.557Z,24.17
2018-01-21T21:33:38.217Z,27.40
2018-01-21T21:36:06.692Z,29.10
2018-01-21T21:38:36.129Z,27.33
2018-01-21T21:41:04.824Z,24.30
2018-01-21T21:43:33.192Z,22.40
2018-01-21T21:46:01.554Z,21.60
2018-01-21T21:48:30.697Z,19.83
2018-01-21T21:50:59.025Z,17.90
2018-01-21T21:53:28.093Z,20.87
2018-01-21T21:55:56.427Z,22.53
2018-01-21T21:58:25.285Z,20.57
2018-01-21T22:00:53.626Z,15.67
2018-01-21T22:03:21.985Z,19.67
2018-01-21T22:05:50.293Z,22.80
2018-01-21T22:08:18.621Z,21.90
2018-01-21T22:10:47.753Z,21.73
2018-01-21T22:13:18.450Z,23.03
2018-01-21T22:15:47.587Z,23.57
2018-01-21T22:18:15.919Z,19.73
2018-01-21T22:20:44.247Z,17.57
2018-01-21T22:23:12.605Z,21.30
2018-01-21T22:25:40.951Z,19.57
2018-01-21T22:28:09.292Z,18.83
2018-01-21T22:30:37.692Z,20.53
2018-01-21T22:33:06.025Z,22.00
2018-01-21T22:35:35.199Z,18.90
2018-01-21T22:38:04.369Z,18.73
2018-01-21T22:40:32.703Z,16.73
2018-01-21T22:43:01.742Z,17.43
2018-01-21T22:45:30.767Z,17.33
2018-01-21T22:47:59.971Z,17.00
2018-01-21T22:50:28.313Z,19.23
2018-01-21T22:52:57.481Z,16.90
2018-01-21T22:55:25.839Z,16.17
2018-01-21T22:57:54.286Z,17.80
2018-01-21T23:00:22.993Z,21.17
2018-01-21T23:02:51.384Z,20.73
2018-01-21T23:05:19.723Z,18.30
2018-01-21T23:07:49.754Z,19.50
2018-01-21T23:10:18.879Z,17.17
2018-01-21T23:12:47.227Z,23.33
2018-01-21T23:15:15.555Z,21.70
2018-01-21T23:17:43.863Z,25.37
2018-01-21T23:20:12.162Z,18.97
2018-01-21T23:22:41.029Z,18.80
2018-01-21T23:25:10.407Z,19.93
2018-01-21T23:27:38.808Z,17.33
2018-01-21T23:30:07.102Z,17.23
2018-01-21T23:32:35.388Z,19.53
2018-01-21T23:35:03.705Z,16.27
2018-01-21T23:37:32.755Z,17.73
2018-01-21T23:40:01.063Z,17.30
2018-01-21T23:42:29.456Z,15.17
2018-01-21T23:44:57.951Z,17.40
2018-01-21T23:47:26.283Z,17.10
2018-01-21T23:49:54.587Z,17.63
2018-01-21T23:52:22.942Z,18.03
2018-01-21T23:54:51.234Z,17.90
2018-01-21T23:57:19.550Z,16.80
2018-01-21T23:59:47.937Z,20.30
